KCCY

Northeast Iowa Regional Airport

Charles City, Iowa, USA
METAR KCCY 191515Z AUTO 16006KT 10SM CLR 24/21 A2997 RMK AO2
Observed Flight Rules
Aug-19 @ 15:15 UTC (24 minutes ago) Visual Flight Rules
Wind Visibility Clouds
160° at 6 knots 10 miles
  • Clear skies
Temperatures Readings
Current 24°C / 75°F
Dewpoint 21°C / 70°F
Humidity 83%
Altimeter 29.97" Hg
Pressure 1015 hPa
Elevation 343
METAR KCCY 191515Z AUTO 16006KT 10SM CLR 24/21 A2997 RMK AO2
Observed Flight Rules
Aug-19 @ 15:15 UTC
(24 minutes ago)
VFR
Wind Visibility
160° at 6 knots 10 miles
Clouds
  • Clear skies
Temperature Dewpoint
24°C / 75°F 21°C / 70°F
Humidity Altimeter Pressure
83% 29.97" Hg 1015 hPa